Time;durP1;ratioP1;P1;durP2;ratioP2;P2;SDS_P1;SDS_P2;PMS_P1;PMS_P2;Temp;Humidity;BMP_temperature;BMP_pressure;BME280_temperature;BME280_humidity;BME280_pressure;Samples;Min_cycle;Max_cycle;Signal;HPM_P1;HPM_P2
2022/07/01 00:02:23;;;;;;;12.75;11.40;;;;;;;;;;5031149;28;20265;-61
2022/07/01 00:04:49;;;;;;;12.70;11.40;;;;;;;;;;5032529;28;20224;-61
2022/07/01 00:07:14;;;;;;;13.43;12.02;;;;;;;;;;5032109;28;20726;-61
2022/07/01 00:09:39;;;;;;;13.82;12.30;;;;;;;;;;5031216;28;20801;-61
2022/07/01 00:12:05;;;;;;;13.77;12.30;;;;;;;;;;5031609;28;20216;-61
2022/07/01 00:14:31;;;;;;;15.82;13.38;;;;;;;;;;5031653;28;20710;-61
2022/07/01 00:16:56;;;;;;;13.52;12.18;;;;;;;;;;5031428;28;20244;-61
2022/07/01 00:19:21;;;;;;;14.93;13.43;;;;;;;;;;5031996;28;20235;-61
2022/07/01 00:21:47;;;;;;;15.13;13.52;;;;;;;;;;5032177;28;20238;-61
2022/07/01 00:24:12;;;;;;;17.00;15.27;;;;;;;;;;5030521;28;20702;-61
2022/07/01 00:26:37;;;;;;;18.33;14.65;;;;;;;;;;5014277;28;20240;-61
2022/07/01 00:29:03;;;;;;;14.65;13.15;;;;;;;;;;5030410;28;20239;-61
2022/07/01 00:31:28;;;;;;;14.82;13.27;;;;;;;;;;5031179;28;20212;-61
2022/07/01 00:33:53;;;;;;;15.20;13.43;;;;;;;;;;5031912;28;20216;-61
2022/07/01 00:36:18;;;;;;;14.18;12.75;;;;;;;;;;5031026;28;20219;-61
2022/07/01 00:38:44;;;;;;;16.00;13.85;;;;;;;;;;5031811;28;20207;-61
2022/07/01 00:41:09;;;;;;;16.38;14.73;;;;;;;;;;5030990;28;20215;-61
2022/07/01 00:43:36;;;;;;;13.13;11.32;;;;;;;;;;5030916;28;20271;-61
2022/07/01 00:46:01;;;;;;;13.75;12.00;;;;;;;;;;5030988;28;20594;-61
2022/07/01 00:48:27;;;;;;;14.32;12.80;;;;;;;;;;5014262;28;20208;-61
2022/07/01 00:50:52;;;;;;;14.18;12.75;;;;;;;;;;5013307;28;20239;-61
2022/07/01 00:53:17;;;;;;;13.13;11.68;;;;;;;;;;5013480;28;20302;-61
2022/07/01 00:55:43;;;;;;;14.07;12.63;;;;;;;;;;5031212;28;20577;-61
2022/07/01 00:58:08;;;;;;;14.25;12.77;;;;;;;;;;5030071;28;20255;-61
2022/07/01 01:00:34;;;;;;;14.65;13.25;;;;;;;;;;5030991;28;20917;-61
2022/07/01 01:02:59;;;;;;;15.50;14.00;;;;;;;;;;5031798;28;20228;-61
2022/07/01 01:05:25;;;;;;;17.33;14.98;;;;;;;;;;5030442;28;20746;-61
2022/07/01 01:07:50;;;;;;;14.43;13.02;;;;;;;;;;5013990;28;20636;-61
2022/07/01 01:10:16;;;;;;;15.23;13.68;;;;;;;;;;5030703;28;20211;-61
2022/07/01 01:12:41;;;;;;;14.95;13.45;;;;;;;;;;5030424;28;20693;-61
2022/07/01 01:15:07;;;;;;;16.02;13.80;;;;;;;;;;5012691;28;20291;-61
2022/07/01 01:17:32;;;;;;;17.90;15.98;;;;;;;;;;5031763;28;20235;-61
2022/07/01 01:19:57;;;;;;;18.77;16.85;;;;;;;;;;5030596;28;20242;-61
2022/07/01 01:22:23;;;;;;;19.25;16.45;;;;;;;;;;5031047;28;20208;-61
2022/07/01 01:24:48;;;;;;;19.85;16.15;;;;;;;;;;5031047;28;20223;-61
2022/07/01 01:27:13;;;;;;;22.80;19.55;;;;;;;;;;5029907;28;20215;-61
2022/07/01 01:29:39;;;;;;;23.42;19.73;;;;;;;;;;5030762;28;20219;-61
2022/07/01 01:32:05;;;;;;;23.63;21.17;;;;;;;;;;5030520;28;20207;-61
2022/07/01 01:34:31;;;;;;;26.80;23.77;;;;;;;;;;5030512;28;20211;-61
2022/07/01 01:36:56;;;;;;;25.40;22.02;;;;;;;;;;4998173;28;20252;-61
2022/07/01 01:39:21;;;;;;;27.55;24.58;;;;;;;;;;5017633;28;20219;-61
2022/07/01 01:41:47;;;;;;;32.10;26.85;;;;;;;;;;5007577;28;20248;-61
2022/07/01 01:44:12;;;;;;;30.83;26.35;;;;;;;;;;4999492;28;20635;-61
2022/07/01 01:46:38;;;;;;;33.65;27.02;;;;;;;;;;4999744;28;20212;-61
2022/07/01 01:49:03;;;;;;;30.38;26.85;;;;;;;;;;4997736;28;20236;-62
2022/07/01 01:51:29;;;;;;;30.63;26.15;;;;;;;;;;5021022;28;20235;-61
2022/07/01 01:53:54;;;;;;;33.95;28.48;;;;;;;;;;5016401;28;20212;-61
2022/07/01 01:56:19;;;;;;;33.67;28.48;;;;;;;;;;5023988;28;20211;-65
2022/07/01 01:58:45;;;;;;;36.72;30.92;;;;;;;;;;5024848;28;20235;-64
2022/07/01 02:01:10;;;;;;;38.25;31.48;;;;;;;;;;5022804;28;20365;-65
2022/07/01 02:03:37;;;;;;;38.50;32.17;;;;;;;;;;5007820;28;20289;-65
2022/07/01 02:06:02;;;;;;;35.85;29.70;;;;;;;;;;5022958;28;20227;-64
2022/07/01 02:08:27;;;;;;;37.05;29.95;;;;;;;;;;5017446;28;20211;-64
2022/07/01 02:10:53;;;;;;;35.25;29.65;;;;;;;;;;5009532;28;20741;-65
2022/07/01 02:13:18;;;;;;;36.83;31.67;;;;;;;;;;4997613;28;20278;-65
2022/07/01 02:15:43;;;;;;;36.13;30.90;;;;;;;;;;5004327;28;20212;-65
2022/07/01 02:18:08;;;;;;;35.92;31.05;;;;;;;;;;5004636;28;20841;-64
2022/07/01 02:20:34;;;;;;;35.83;31.00;;;;;;;;;;5005200;28;20607;-64
2022/07/01 02:22:59;;;;;;;37.08;31.60;;;;;;;;;;5004875;28;20220;-65
2022/07/01 02:25:24;;;;;;;33.40;29.15;;;;;;;;;;5004428;28;20251;-64
2022/07/01 02:27:50;;;;;;;37.60;30.75;;;;;;;;;;5004728;28;20270;-65
2022/07/01 02:30:15;;;;;;;36.05;31.00;;;;;;;;;;4998024;28;20215;-64
2022/07/01 02:32:40;;;;;;;34.85;31.05;;;;;;;;;;4997152;28;20753;-64
2022/07/01 02:35:06;;;;;;;35.65;31.75;;;;;;;;;;4996854;28;20212;-65
2022/07/01 02:37:33;;;;;;;35.65;31.50;;;;;;;;;;5002362;28;20680;-65
2022/07/01 02:39:58;;;;;;;35.25;31.35;;;;;;;;;;5004767;28;20707;-65
2022/07/01 02:42:25;;;;;;;36.63;32.53;;;;;;;;;;5003769;28;20248;-65
2022/07/01 02:44:51;;;;;;;37.17;32.88;;;;;;;;;;5009161;28;20266;-65
2022/07/01 02:47:16;;;;;;;33.90;30.25;;;;;;;;;;5023710;28;20212;-65
2022/07/01 02:49:41;;;;;;;37.45;32.03;;;;;;;;;;5008861;28;20212;-64
2022/07/01 02:52:07;;;;;;;39.50;34.33;;;;;;;;;;5000153;28;20228;-65
2022/07/01 02:54:32;;;;;;;35.25;31.42;;;;;;;;;;4996923;28;20216;-64
2022/07/01 02:56:57;;;;;;;32.53;29.02;;;;;;;;;;4995664;28;20339;-64
2022/07/01 02:59:23;;;;;;;32.10;28.70;;;;;;;;;;5007662;28;20244;-65
2022/07/01 03:01:48;;;;;;;33.38;28.70;;;;;;;;;;5003765;28;20271;-64
2022/07/01 03:04:13;;;;;;;38.13;29.52;;;;;;;;;;5003135;28;20232;-64
2022/07/01 03:06:38;;;;;;;32.72;29.20;;;;;;;;;;5004500;28;20216;-64
2022/07/01 03:09:04;;;;;;;34.60;30.42;;;;;;;;;;5003668;28;20212;-65
2022/07/01 03:11:29;;;;;;;34.42;29.23;;;;;;;;;;5002912;28;20228;-65
2022/07/01 03:13:54;;;;;;;35.40;29.92;;;;;;;;;;5002908;28;20209;-64
2022/07/01 03:16:20;;;;;;;31.73;27.50;;;;;;;;;;4996330;28;20878;-64
2022/07/01 03:18:45;;;;;;;31.45;27.73;;;;;;;;;;4996266;28;20266;-64
2022/07/01 03:21:10;;;;;;;34.03;28.52;;;;;;;;;;4996693;28;20315;-64
2022/07/01 03:23:36;;;;;;;32.03;27.30;;;;;;;;;;5004142;28;20683;-64
2022/07/01 03:26:01;;;;;;;36.05;28.75;;;;;;;;;;5002585;28;20216;-65
2022/07/01 03:28:26;;;;;;;33.83;28.45;;;;;;;;;;5003943;28;20223;-64
2022/07/01 03:30:51;;;;;;;29.88;26.58;;;;;;;;;;5003404;28;20274;-64
2022/07/01 03:33:17;;;;;;;33.85;28.60;;;;;;;;;;5002850;28;20649;-65
2022/07/01 03:35:45;;;;;;;32.15;28.63;;;;;;;;;;5004149;28;20212;-64
2022/07/01 03:38:10;;;;;;;33.42;28.60;;;;;;;;;;4996743;28;20563;-64
2022/07/01 03:40:36;;;;;;;33.10;28.33;;;;;;;;;;4993581;28;20348;-67
2022/07/01 03:43:01;;;;;;;32.05;27.35;;;;;;;;;;4995441;28;20633;-62
2022/07/01 03:45:26;;;;;;;33.22;27.58;;;;;;;;;;5012354;28;20219;-66
2022/07/01 03:47:52;;;;;;;34.53;30.83;;;;;;;;;;5017459;28;20455;-69
2022/07/01 03:50:17;;;;;;;34.20;27.23;;;;;;;;;;5002839;28;20295;-69
2022/07/01 03:52:43;;;;;;;33.90;27.67;;;;;;;;;;5004646;28;20212;-70
2022/07/01 03:55:08;;;;;;;33.13;27.52;;;;;;;;;;5021721;28;20227;-70
2022/07/01 03:57:34;;;;;;;33.72;28.50;;;;;;;;;;5013597;28;20235;-68
2022/07/01 03:59:59;;;;;;;32.22;26.98;;;;;;;;;;4998774;28;20305;-67
2022/07/01 04:02:24;;;;;;;33.25;28.00;;;;;;;;;;4993549;28;20224;-67
2022/07/01 04:04:50;;;;;;;34.38;27.98;;;;;;;;;;4995412;28;20335;-71
2022/07/01 04:07:15;;;;;;;32.45;26.98;;;;;;;;;;4997384;28;20740;-71
2022/07/01 04:09:40;;;;;;;37.13;29.20;;;;;;;;;;5003156;28;20765;-70
2022/07/01 04:12:08;;;;;;;32.80;27.88;;;;;;;;;;5003136;28;20534;-67
2022/07/01 04:14:33;;;;;;;33.63;27.13;;;;;;;;;;5002995;28;20204;-69
2022/07/01 04:16:58;;;;;;;33.60;28.83;;;;;;;;;;5002462;28;20235;-69
2022/07/01 04:19:24;;;;;;;34.33;27.35;;;;;;;;;;5002332;28;20299;-72
2022/07/01 04:24:33;;;;;;;31.20;26.10;;;;;;;;;;5019856;28;20277;-65
2022/07/01 04:27:00;;;;;;;32.85;26.90;;;;;;;;;;5003467;28;20672;-66
2022/07/01 04:29:25;;;;;;;31.42;25.52;;;;;;;;;;4996323;28;20210;-64
2022/07/01 04:31:50;;;;;;;35.08;27.00;;;;;;;;;;5002264;28;20221;-64
2022/07/01 04:34:15;;;;;;;32.72;25.85;;;;;;;;;;5001865;28;20235;-64
2022/07/01 04:36:41;;;;;;;32.42;25.90;;;;;;;;;;5001947;28;20267;-64
2022/07/01 04:39:06;;;;;;;31.17;25.55;;;;;;;;;;5003413;28;20289;-64
2022/07/01 04:44:15;;;;;;;33.05;26.35;;;;;;;;;;5011950;28;20572;-64
2022/07/01 04:46:41;;;;;;;33.40;25.25;;;;;;;;;;5014431;28;20220;-64
2022/07/01 04:49:07;;;;;;;29.75;23.77;;;;;;;;;;5013262;28;20223;-64
2022/07/01 04:51:34;;;;;;;31.60;22.98;;;;;;;;;;5014286;28;20296;-64
2022/07/01 04:53:59;;;;;;;27.75;22.30;;;;;;;;;;5021458;28;20212;-64
2022/07/01 04:56:26;;;;;;;33.58;23.48;;;;;;;;;;5020395;28;20330;-64
2022/07/01 04:58:52;;;;;;;32.60;23.27;;;;;;;;;;5021156;28;20242;-64
2022/07/01 05:01:17;;;;;;;30.13;22.17;;;;;;;;;;5020841;28;20219;-64
2022/07/01 05:03:42;;;;;;;29.55;23.10;;;;;;;;;;5020862;28;20215;-64
2022/07/01 05:06:07;;;;;;;31.20;22.25;;;;;;;;;;5020820;28;20216;-64
2022/07/01 05:08:33;;;;;;;31.80;23.00;;;;;;;;;;5015254;28;20215;-64
2022/07/01 05:10:58;;;;;;;34.20;22.15;;;;;;;;;;5012874;28;20227;-64
2022/07/01 05:13:23;;;;;;;33.05;23.00;;;;;;;;;;5013213;28;20239;-64
2022/07/01 05:15:49;;;;;;;30.55;21.65;;;;;;;;;;5006927;28;20216;-64
2022/07/01 05:23:42;;;;;;;32.60;23.00;;;;;;;;;;5026683;28;20214;-64
2022/07/01 05:26:07;;;;;;;30.30;22.25;;;;;;;;;;5028078;28;20630;-64
2022/07/01 05:28:32;;;;;;;30.05;22.52;;;;;;;;;;5021512;28;20282;-64
2022/07/01 05:30:58;;;;;;;26.23;20.30;;;;;;;;;;5004545;28;20363;-64
2022/07/01 05:33:26;;;;;;;29.92;21.00;;;;;;;;;;4992830;28;20643;-64
2022/07/01 05:35:52;;;;;;;30.67;21.08;;;;;;;;;;4995392;28;20767;-64
2022/07/01 05:38:17;;;;;;;27.77;20.30;;;;;;;;;;5017619;28;20215;-64
2022/07/01 05:40:42;;;;;;;27.30;20.70;;;;;;;;;;5020729;28;20208;-64
2022/07/01 05:43:07;;;;;;;28.63;19.55;;;;;;;;;;5020839;28;20274;-64
2022/07/01 05:45:33;;;;;;;28.48;20.58;;;;;;;;;;5008146;28;20588;-64
2022/07/01 05:47:58;;;;;;;29.42;19.40;;;;;;;;;;5020514;28;20203;-65
2022/07/01 05:50:23;;;;;;;27.55;20.65;;;;;;;;;;5020243;28;20208;-64
2022/07/01 05:52:49;;;;;;;33.50;20.65;;;;;;;;;;5016978;28;20744;-64
2022/07/01 05:55:14;;;;;;;30.02;20.13;;;;;;;;;;5013457;28;20322;-64
2022/07/01 05:57:39;;;;;;;26.88;19.42;;;;;;;;;;5012923;28;20573;-64
2022/07/01 06:00:05;;;;;;;28.58;19.15;;;;;;;;;;5014499;28;20697;-64
2022/07/01 06:02:30;;;;;;;30.17;19.83;;;;;;;;;;5020554;28;20354;-64
2022/07/01 06:04:56;;;;;;;24.77;18.67;;;;;;;;;;5020556;28;20235;-64
2022/07/01 06:07:21;;;;;;;30.40;19.35;;;;;;;;;;5019848;28;20222;-64
2022/07/01 06:09:46;;;;;;;26.65;19.40;;;;;;;;;;5020832;28;20216;-64
2022/07/01 06:12:12;;;;;;;30.33;19.40;;;;;;;;;;5020392;28;20220;-64
2022/07/01 06:14:37;;;;;;;29.70;19.15;;;;;;;;;;5016584;28;20261;-64
2022/07/01 06:17:03;;;;;;;28.05;18.73;;;;;;;;;;4991694;28;20594;-64
2022/07/01 06:19:28;;;;;;;31.58;20.23;;;;;;;;;;4992934;28;20220;-64
2022/07/01 06:21:54;;;;;;;28.98;19.25;;;;;;;;;;4993591;28;20213;-64
2022/07/01 06:24:19;;;;;;;26.27;17.80;;;;;;;;;;5000139;28;20659;-64
2022/07/01 06:26:46;;;;;;;26.58;19.10;;;;;;;;;;5020566;28;20626;-64
2022/07/01 06:29:13;;;;;;;25.60;18.45;;;;;;;;;;5020179;28;20258;-64
2022/07/01 06:31:38;;;;;;;28.85;18.92;;;;;;;;;;5007140;28;20271;-64
2022/07/01 06:34:03;;;;;;;25.95;18.98;;;;;;;;;;5004214;28;20676;-63
2022/07/01 06:36:29;;;;;;;32.15;19.73;;;;;;;;;;5003895;28;20608;-64
2022/07/01 06:38:54;;;;;;;27.60;18.92;;;;;;;;;;4999499;28;20615;-64
2022/07/01 06:41:26;;;;;;;26.35;19.17;;;;;;;;;;4996430;28;20243;-64
2022/07/01 06:43:51;;;;;;;25.73;18.77;;;;;;;;;;5018051;28;20204;-64
2022/07/01 06:46:17;;;;;;;27.35;19.48;;;;;;;;;;5018827;28;20297;-64
2022/07/01 06:48:42;;;;;;;24.95;18.23;;;;;;;;;;5023297;28;20255;-64
2022/07/01 06:51:07;;;;;;;28.67;19.05;;;;;;;;;;5022731;28;20223;-64
2022/07/01 06:53:32;;;;;;;26.17;19.17;;;;;;;;;;5023771;28;20643;-64
2022/07/01 06:55:58;;;;;;;26.60;18.80;;;;;;;;;;5022840;28;20231;-64
2022/07/01 06:58:23;;;;;;;24.27;18.08;;;;;;;;;;5023387;28;20219;-64
2022/07/01 07:00:48;;;;;;;26.73;18.70;;;;;;;;;;5024835;28;20662;-64
2022/07/01 07:03:14;;;;;;;28.52;18.38;;;;;;;;;;5018569;28;20300;-64
2022/07/01 07:05:39;;;;;;;26.20;17.60;;;;;;;;;;4996138;28;20227;-64
2022/07/01 07:08:04;;;;;;;26.58;18.20;;;;;;;;;;5012816;28;20224;-64
2022/07/01 07:10:30;;;;;;;24.92;18.10;;;;;;;;;;5013119;28;20681;-64
2022/07/01 07:12:55;;;;;;;26.33;17.85;;;;;;;;;;5013974;28;20212;-64
2022/07/01 07:15:21;;;;;;;23.45;17.67;;;;;;;;;;5020701;28;20210;-64
2022/07/01 07:17:46;;;;;;;26.23;18.08;;;;;;;;;;5052324;28;20229;-64
2022/07/01 07:20:11;;;;;;;26.08;18.33;;;;;;;;;;5052438;28;20294;-63
2022/07/01 07:22:37;;;;;;;28.98;18.77;;;;;;;;;;5052780;28;20666;-63
2022/07/01 07:25:02;;;;;;;26.80;17.90;;;;;;;;;;5052205;28;20257;-64
2022/07/01 07:27:28;;;;;;;26.20;17.77;;;;;;;;;;5053236;28;20210;-64
2022/07/01 07:29:53;;;;;;;26.35;17.80;;;;;;;;;;5052785;28;20222;-64
2022/07/01 07:32:19;;;;;;;25.48;17.17;;;;;;;;;;5051691;28;20662;-64
2022/07/01 07:34:44;;;;;;;26.08;16.77;;;;;;;;;;5052775;28;20619;-64
2022/07/01 07:37:09;;;;;;;23.48;16.83;;;;;;;;;;5051957;28;20219;-64
2022/07/01 07:39:35;;;;;;;25.05;15.95;;;;;;;;;;5052128;28;20309;-64
2022/07/01 07:42:00;;;;;;;21.55;14.95;;;;;;;;;;5052160;28;20286;-63
2022/07/01 07:44:25;;;;;;;22.80;14.63;;;;;;;;;;5052347;28;20314;-64
2022/07/01 07:46:50;;;;;;;21.48;14.88;;;;;;;;;;5052020;28;20227;-64
2022/07/01 07:49:16;;;;;;;23.05;15.50;;;;;;;;;;5051897;28;20286;-64
2022/07/01 07:51:42;;;;;;;20.85;15.13;;;;;;;;;;5052376;28;20310;-64
2022/07/01 07:54:07;;;;;;;23.25;15.65;;;;;;;;;;5051270;28;20219;-64
2022/07/01 07:56:32;;;;;;;22.05;14.55;;;;;;;;;;5052635;28;20702;-64
2022/07/01 07:58:58;;;;;;;19.15;14.80;;;;;;;;;;5052226;28;20309;-64
2022/07/01 08:01:23;;;;;;;22.00;15.25;;;;;;;;;;5050976;28;20207;-63
2022/07/01 08:03:48;;;;;;;20.08;14.80;;;;;;;;;;5052135;28;20229;-64
2022/07/01 08:06:14;;;;;;;20.33;14.32;;;;;;;;;;5050716;28;20226;-64
2022/07/01 08:08:39;;;;;;;20.38;13.20;;;;;;;;;;5052027;28;20696;-64
2022/07/01 08:11:05;;;;;;;18.45;13.20;;;;;;;;;;5051686;28;20683;-64
2022/07/01 08:13:30;;;;;;;17.90;13.25;;;;;;;;;;5051672;28;20276;-64
2022/07/01 08:15:56;;;;;;;18.73;12.70;;;;;;;;;;5051936;28;20233;-64
2022/07/01 08:18:21;;;;;;;16.83;13.02;;;;;;;;;;5050748;28;20207;-64
2022/07/01 08:20:47;;;;;;;19.73;12.10;;;;;;;;;;5051298;28;20214;-64
2022/07/01 08:23:12;;;;;;;18.65;12.80;;;;;;;;;;5051296;28;20215;-64
2022/07/01 08:25:38;;;;;;;15.95;12.02;;;;;;;;;;5051653;28;20227;-63
2022/07/01 08:28:03;;;;;;;14.80;10.25;;;;;;;;;;5051237;28;20699;-64
2022/07/01 08:30:28;;;;;;;17.15;11.50;;;;;;;;;;5051851;28;20215;-64
2022/07/01 08:32:54;;;;;;;15.57;10.88;;;;;;;;;;5051683;28;20649;-64
2022/07/01 08:35:19;;;;;;;15.15;9.75;;;;;;;;;;5050625;28;20215;-64
2022/07/01 08:37:44;;;;;;;12.77;9.80;;;;;;;;;;5051669;28;20211;-64
2022/07/01 08:40:10;;;;;;;12.23;8.98;;;;;;;;;;5050766;28;20256;-64
2022/07/01 08:42:35;;;;;;;13.55;8.23;;;;;;;;;;5051223;28;20203;-63
2022/07/01 08:45:00;;;;;;;15.45;8.52;;;;;;;;;;5051596;28;20219;-64
2022/07/01 08:47:26;;;;;;;12.50;7.32;;;;;;;;;;5051263;28;20255;-64
2022/07/01 08:49:51;;;;;;;15.68;7.35;;;;;;;;;;5050747;28;20239;-64
2022/07/01 08:52:16;;;;;;;10.73;7.18;;;;;;;;;;5032628;28;20214;-64
2022/07/01 08:54:42;;;;;;;12.52;7.93;;;;;;;;;;5050755;28;20565;-64
2022/07/01 08:57:07;;;;;;;11.80;6.57;;;;;;;;;;5050393;28;20215;-63
2022/07/01 08:59:33;;;;;;;11.95;6.88;;;;;;;;;;5051419;28;20306;-64
2022/07/01 09:01:59;;;;;;;10.25;6.80;;;;;;;;;;5033577;28;20215;-63
2022/07/01 09:04:24;;;;;;;10.70;6.15;;;;;;;;;;5049986;28;20209;-64
2022/07/01 09:06:50;;;;;;;9.27;4.65;;;;;;;;;;5051245;28;20211;-64
2022/07/01 09:09:16;;;;;;;6.03;3.20;;;;;;;;;;5050417;28;20622;-63
2022/07/01 09:11:45;;;;;;;7.45;3.20;;;;;;;;;;5050769;28;20214;-64
2022/07/01 09:14:12;;;;;;;8.52;3.40;;;;;;;;;;5023911;28;20306;-63
2022/07/01 09:16:41;;;;;;;8.32;2.95;;;;;;;;;;5010856;28;20215;-64
2022/07/01 09:19:06;;;;;;;8.90;2.92;;;;;;;;;;5011094;28;20220;-64
2022/07/01 09:21:31;;;;;;;6.47;2.30;;;;;;;;;;5010927;28;20569;-63
2022/07/01 09:23:58;;;;;;;6.25;2.55;;;;;;;;;;5010885;28;20270;-64
2022/07/01 09:26:23;;;;;;;7.20;2.28;;;;;;;;;;5010898;28;20216;-63
2022/07/01 09:28:54;;;;;;;7.97;2.58;;;;;;;;;;4993740;28;20263;-63
2022/07/01 09:31:19;;;;;;;8.75;2.88;;;;;;;;;;5024626;28;20212;-64
2022/07/01 09:33:45;;;;;;;7.82;2.67;;;;;;;;;;5030890;28;20216;-64
2022/07/01 09:36:14;;;;;;;7.45;2.45;;;;;;;;;;5030176;28;20220;-63
2022/07/01 09:38:44;;;;;;;6.68;2.17;;;;;;;;;;5030607;28;20567;-63
2022/07/01 09:41:11;;;;;;;7.97;2.25;;;;;;;;;;5030671;28;20212;-63
2022/07/01 09:43:37;;;;;;;8.02;2.17;;;;;;;;;;5030961;28;20203;-63
2022/07/01 09:46:03;;;;;;;4.97;1.70;;;;;;;;;;5030067;28;20280;-63
2022/07/01 09:48:35;;;;;;;5.05;1.80;;;;;;;;;;5030876;28;20218;-63
2022/07/01 09:51:00;;;;;;;5.30;1.83;;;;;;;;;;5030555;28;20207;-64
2022/07/01 09:53:26;;;;;;;5.38;1.92;;;;;;;;;;5030052;28;20208;-63
2022/07/01 09:55:51;;;;;;;7.00;1.75;;;;;;;;;;5030923;28;20220;-64
2022/07/01 09:58:16;;;;;;;4.78;1.30;;;;;;;;;;5030528;28;20718;-63
2022/07/01 10:00:42;;;;;;;2.88;1.20;;;;;;;;;;5030155;28;20236;-63
2022/07/01 10:03:07;;;;;;;5.03;1.60;;;;;;;;;;5030382;28;20223;-63
2022/07/01 10:05:37;;;;;;;5.35;1.73;;;;;;;;;;5016093;28;20227;-63
2022/07/01 10:08:15;;;;;;;6.05;1.60;;;;;;;;;;5033665;28;20211;-64
2022/07/01 10:10:46;;;;;;;5.10;1.85;;;;;;;;;;5016790;28;20215;-64
2022/07/01 10:13:13;;;;;;;4.07;1.50;;;;;;;;;;5033527;28;20208;-63
2022/07/01 10:15:39;;;;;;;3.17;1.10;;;;;;;;;;5034332;28;20575;-64
2022/07/01 10:18:04;;;;;;;7.80;1.90;;;;;;;;;;5033472;28;20208;-63
2022/07/01 10:20:30;;;;;;;3.85;1.35;;;;;;;;;;5033794;28;20676;-63
2022/07/01 10:23:03;;;;;;;4.85;1.30;;;;;;;;;;5034307;28;20214;-64
2022/07/01 10:25:29;;;;;;;4.05;1.52;;;;;;;;;;5046122;28;20211;-63
2022/07/01 10:28:13;;;;;;;6.10;1.45;;;;;;;;;;5053664;28;20273;-63
2022/07/01 10:30:49;;;;;;;4.60;1.38;;;;;;;;;;5041869;28;20670;-63
2022/07/01 10:33:34;;;;;;;5.78;1.50;;;;;;;;;;5041698;28;20704;-63
2022/07/01 10:36:03;;;;;;;4.05;1.38;;;;;;;;;;5033793;28;20609;-63
2022/07/01 10:38:29;;;;;;;3.70;1.30;;;;;;;;;;5041319;28;20203;-64
2022/07/01 10:40:54;;;;;;;6.32;1.77;;;;;;;;;;5041571;28;20219;-63
2022/07/01 10:43:32;;;;;;;3.28;1.50;;;;;;;;;;5033196;28;20212;-63
2022/07/01 10:45:57;;;;;;;4.85;1.25;;;;;;;;;;5033904;28;21376;-64
2022/07/01 10:48:23;;;;;;;3.63;1.70;;;;;;;;;;5032967;28;20276;-63
2022/07/01 10:50:49;;;;;;;6.50;1.50;;;;;;;;;;5034214;28;20222;-63
2022/07/01 10:53:14;;;;;;;2.97;1.30;;;;;;;;;;5032818;28;20554;-63
2022/07/01 10:55:41;;;;;;;3.67;1.20;;;;;;;;;;5033094;28;20216;-63
2022/07/01 10:58:06;;;;;;;3.65;1.40;;;;;;;;;;5032981;28;20235;-64
2022/07/01 11:00:32;;;;;;;3.63;1.02;;;;;;;;;;5033410;28;20255;-63
2022/07/01 11:03:07;;;;;;;2.40;0.98;;;;;;;;;;5033312;28;20219;-64
2022/07/01 11:05:33;;;;;;;4.45;1.17;;;;;;;;;;5053261;28;20238;-63
2022/07/01 11:07:59;;;;;;;4.43;1.30;;;;;;;;;;5035119;28;20221;-64
2022/07/01 11:10:24;;;;;;;4.35;1.20;;;;;;;;;;5052380;28;20215;-63
2022/07/01 11:12:49;;;;;;;3.50;1.02;;;;;;;;;;5035142;28;20587;-63
2022/07/01 11:15:15;;;;;;;4.15;1.20;;;;;;;;;;5052436;28;20235;-63
2022/07/01 11:17:44;;;;;;;2.33;0.98;;;;;;;;;;5034868;28;20222;-63
2022/07/01 11:20:09;;;;;;;4.00;1.30;;;;;;;;;;5052510;28;20246;-63
2022/07/01 11:22:35;;;;;;;5.75;1.30;;;;;;;;;;5052797;28;20223;-63
2022/07/01 11:25:01;;;;;;;4.95;1.13;;;;;;;;;;5052361;28;20219;-63
2022/07/01 11:27:26;;;;;;;4.05;0.80;;;;;;;;;;5052561;28;20227;-63
2022/07/01 11:29:52;;;;;;;7.97;1.27;;;;;;;;;;5052850;28;20695;-63
2022/07/01 11:32:29;;;;;;;3.53;0.90;;;;;;;;;;5032889;28;20204;-63
2022/07/01 11:34:54;;;;;;;6.10;1.20;;;;;;;;;;5040912;28;20314;-62
2022/07/01 11:40:05;;;;;;;3.13;1.15;;;;;;;;;;5032541;28;20222;-63
2022/07/01 11:42:30;;;;;;;6.10;1.13;;;;;;;;;;5032685;28;20211;-63
2022/07/01 11:44:55;;;;;;;3.72;1.20;;;;;;;;;;5032278;28;20283;-63
2022/07/01 11:47:22;;;;;;;3.88;1.20;;;;;;;;;;5032195;28;20253;-63
2022/07/01 11:49:48;;;;;;;4.32;1.38;;;;;;;;;;5032324;28;20203;-63
2022/07/01 11:52:13;;;;;;;4.45;1.20;;;;;;;;;;5031491;28;20224;-62
2022/07/01 11:54:38;;;;;;;5.40;1.13;;;;;;;;;;5032389;28;20214;-63
2022/07/01 11:57:18;;;;;;;5.47;1.38;;;;;;;;;;5031975;28;20562;-63
2022/07/01 11:59:44;;;;;;;5.82;1.20;;;;;;;;;;5031743;28;20285;-63
2022/07/01 12:02:11;;;;;;;6.07;1.23;;;;;;;;;;5032035;28;20290;-63
2022/07/01 12:04:36;;;;;;;6.82;1.30;;;;;;;;;;5014466;28;20226;-63
2022/07/01 12:07:02;;;;;;;5.28;1.30;;;;;;;;;;5031100;28;20212;-63
2022/07/01 12:09:27;;;;;;;4.80;1.30;;;;;;;;;;5014559;28;20228;-63
2022/07/01 12:11:52;;;;;;;4.15;1.33;;;;;;;;;;5014620;28;20247;-63
2022/07/01 12:14:19;;;;;;;4.38;1.08;;;;;;;;;;5031035;28;20295;-63
2022/07/01 12:16:45;;;;;;;3.85;1.13;;;;;;;;;;5031810;28;20214;-63
2022/07/01 12:19:10;;;;;;;3.72;0.90;;;;;;;;;;5031532;28;20642;-62
2022/07/01 12:21:48;;;;;;;4.70;1.25;;;;;;;;;;5030492;28;20220;-63
2022/07/01 12:24:14;;;;;;;2.45;0.90;;;;;;;;;;5033419;28;20203;-64
2022/07/01 12:26:47;;;;;;;4.78;0.98;;;;;;;;;;5036252;28;20235;-64
2022/07/01 12:29:13;;;;;;;4.80;1.08;;;;;;;;;;5039054;28;20287;-65
2022/07/01 12:31:40;;;;;;;4.60;0.90;;;;;;;;;;5024340;28;20345;-64
2022/07/01 12:34:05;;;;;;;2.85;0.93;;;;;;;;;;5039946;28;20622;-63
2022/07/01 12:36:30;;;;;;;3.55;1.00;;;;;;;;;;5023156;28;20321;-63
2022/07/01 12:38:59;;;;;;;4.30;1.10;;;;;;;;;;5043672;28;20211;-63
2022/07/01 12:41:26;;;;;;;2.90;0.98;;;;;;;;;;5043950;28;20312;-63
2022/07/01 12:43:52;;;;;;;3.67;1.30;;;;;;;;;;5025967;28;20215;-63
2022/07/01 12:46:27;;;;;;;4.63;1.17;;;;;;;;;;5037910;28;20219;-64
2022/07/01 12:48:52;;;;;;;5.45;1.10;;;;;;;;;;5039714;28;20217;-63
2022/07/01 12:51:18;;;;;;;6.60;1.35;;;;;;;;;;5041609;28;20200;-62
2022/07/01 12:53:43;;;;;;;4.75;1.42;;;;;;;;;;5040568;28;20666;-63
2022/07/01 12:56:08;;;;;;;5.47;1.10;;;;;;;;;;5021837;28;20214;-64
2022/07/01 12:58:34;;;;;;;5.32;1.10;;;;;;;;;;5047181;28;20200;-66
2022/07/01 13:00:59;;;;;;;4.65;1.00;;;;;;;;;;5022640;28;20226;-62
2022/07/01 13:03:25;;;;;;;4.68;1.00;;;;;;;;;;5040570;28;20218;-62
2022/07/01 13:05:51;;;;;;;5.78;1.20;;;;;;;;;;5038180;28;20318;-62
2022/07/01 13:08:16;;;;;;;5.63;1.48;;;;;;;;;;5028731;28;20702;-62
2022/07/01 13:10:41;;;;;;;2.60;0.90;;;;;;;;;;5042410;28;20292;-63
2022/07/01 13:13:07;;;;;;;3.17;0.85;;;;;;;;;;5039494;28;20196;-61
2022/07/01 13:15:32;;;;;;;2.85;1.10;;;;;;;;;;5034760;28;20610;-62
2022/07/01 13:17:58;;;;;;;6.28;1.42;;;;;;;;;;5021305;28;20274;-63
2022/07/01 13:20:23;;;;;;;5.10;1.40;;;;;;;;;;5032224;28;20632;-62
2022/07/01 13:22:48;;;;;;;5.85;1.10;;;;;;;;;;5044940;28;20215;-62
2022/07/01 13:25:14;;;;;;;4.60;1.25;;;;;;;;;;5050499;28;20284;-62
2022/07/01 13:27:39;;;;;;;5.15;1.10;;;;;;;;;;5050652;28;20268;-63
2022/07/01 13:30:04;;;;;;;4.18;1.00;;;;;;;;;;5044690;28;20295;-62
2022/07/01 13:32:30;;;;;;;4.32;1.00;;;;;;;;;;5031301;28;20249;-62
2022/07/01 13:34:55;;;;;;;4.50;1.08;;;;;;;;;;5015218;28;20240;-62
2022/07/01 13:37:20;;;;;;;4.88;0.98;;;;;;;;;;5027888;28;20361;-62
2022/07/01 13:39:46;;;;;;;2.95;0.93;;;;;;;;;;5033583;28;20207;-62
2022/07/01 13:42:11;;;;;;;4.40;1.33;;;;;;;;;;5034207;28;20211;-62
2022/07/01 13:44:36;;;;;;;3.05;1.00;;;;;;;;;;5033988;28;20287;-62
2022/07/01 13:47:03;;;;;;;8.25;1.33;;;;;;;;;;5033394;28;20302;-62
2022/07/01 13:49:29;;;;;;;3.42;1.00;;;;;;;;;;5017195;28;20735;-62
2022/07/01 13:51:54;;;;;;;4.13;1.00;;;;;;;;;;5017019;28;20211;-63
2022/07/01 13:54:20;;;;;;;5.40;0.98;;;;;;;;;;5034774;28;20234;-63
2022/07/01 13:56:45;;;;;;;2.70;1.20;;;;;;;;;;5017074;28;20207;-63
2022/07/01 13:59:10;;;;;;;5.63;1.10;;;;;;;;;;5033209;28;20224;-63
2022/07/01 14:01:36;;;;;;;6.15;1.17;;;;;;;;;;5034384;28;20679;-63
2022/07/01 14:04:01;;;;;;;6.13;1.40;;;;;;;;;;5033975;28;20357;-64
2022/07/01 14:06:26;;;;;;;6.13;1.30;;;;;;;;;;5016540;28;20702;-63
2022/07/01 14:08:52;;;;;;;4.35;1.08;;;;;;;;;;5034968;28;20701;-62
2022/07/01 14:11:17;;;;;;;5.50;1.00;;;;;;;;;;5034013;28;20551;-62
2022/07/01 14:13:42;;;;;;;3.33;1.30;;;;;;;;;;5033962;28;20550;-62
2022/07/01 14:16:08;;;;;;;5.85;1.10;;;;;;;;;;5033461;28;20610;-62
2022/07/01 14:18:33;;;;;;;3.40;0.93;;;;;;;;;;5034260;28;20262;-62
2022/07/01 14:20:59;;;;;;;4.00;1.02;;;;;;;;;;5033841;28;20721;-62
2022/07/01 14:23:24;;;;;;;4.15;0.70;;;;;;;;;;5033891;28;20298;-62
2022/07/01 14:25:49;;;;;;;3.13;0.77;;;;;;;;;;5034418;28;20232;-62
2022/07/01 14:28:14;;;;;;;4.38;0.70;;;;;;;;;;5033153;28;20246;-62
2022/07/01 14:30:40;;;;;;;4.13;0.77;;;;;;;;;;5033521;28;20289;-62
2022/07/01 14:33:05;;;;;;;2.78;0.90;;;;;;;;;;5029588;28;20223;-62